Terminal Aerodrome Forecast
Issued by NWS Boston, MA

Home | Current Version | Previous Version | Text Only | Print | Product List | Glossary On
Versions: 1 2 3 4 5 6 7 8 9 10 11 12 13 14 15 16 17 18 19 20 21 22 23 24 25 26 27 28 29 30 31 32
000
FTUS41 KBOX 110520
TAFORH
TAF
KORH 110520Z 1106/1206 26008KT P6SM SKC
     FM111200 24005KT P6SM SCT250
     FM111500 23010KT P6SM SCT060
     FM120500 22008KT P6SM BKN050=

USA.gov is the U.S. government's official web portal to all federal, state and local government web resources and services.